sensor_id;sensor_type;location;lat;lon;timestamp;temperature;humidity
18460;DHT22;9359;50.932;6.924;2024-01-11T00:02:24;15.60;99.90
18460;DHT22;9359;50.932;6.924;2024-01-11T00:04:54;15.50;99.90
18460;DHT22;9359;50.932;6.924;2024-01-11T00:07:25;15.50;99.90
18460;DHT22;9359;50.932;6.924;2024-01-11T00:09:57;15.50;99.90
18460;DHT22;9359;50.932;6.924;2024-01-11T00:12:28;15.60;99.90
18460;DHT22;9359;50.932;6.924;2024-01-11T00:14:59;15.50;99.90
18460;DHT22;9359;50.932;6.924;2024-01-11T00:17:29;15.50;99.90
18460;DHT22;9359;50.932;6.924;2024-01-11T00:20:00;15.50;99.90
18460;DHT22;9359;50.932;6.924;2024-01-11T00:22:30;15.50;99.90
18460;DHT22;9359;50.932;6.924;2024-01-11T00:25:03;15.50;99.90
18460;DHT22;9359;50.932;6.924;2024-01-11T00:27:34;15.50;99.90
18460;DHT22;9359;50.932;6.924;2024-01-11T00:30:06;15.50;99.90
18460;DHT22;9359;50.932;6.924;2024-01-11T00:32:37;15.50;99.90
18460;DHT22;9359;50.932;6.924;2024-01-11T00:35:08;15.50;99.90
18460;DHT22;9359;50.932;6.924;2024-01-11T00:37:39;15.50;99.90
18460;DHT22;9359;50.932;6.924;2024-01-11T00:40:13;15.50;99.90
18460;DHT22;9359;50.932;6.924;2024-01-11T00:42:44;15.50;99.90
18460;DHT22;9359;50.932;6.924;2024-01-11T00:45:14;15.50;99.90
18460;DHT22;9359;50.932;6.924;2024-01-11T00:47:45;15.50;99.90
18460;DHT22;9359;50.932;6.924;2024-01-11T00:50:16;15.50;99.90
18460;DHT22;9359;50.932;6.924;2024-01-11T00:52:46;15.50;99.90
18460;DHT22;9359;50.932;6.924;2024-01-11T00:55:19;15.50;99.90
18460;DHT22;9359;50.932;6.924;2024-01-11T00:57:49;15.50;99.90
18460;DHT22;9359;50.932;6.924;2024-01-11T01:00:20;15.50;99.90
18460;DHT22;9359;50.932;6.924;2024-01-11T01:02:50;15.50;99.90
18460;DHT22;9359;50.932;6.924;2024-01-11T01:05:21;15.50;99.90
18460;DHT22;9359;50.932;6.924;2024-01-11T01:07:52;15.50;99.90
18460;DHT22;9359;50.932;6.924;2024-01-11T01:10:24;15.50;99.90
18460;DHT22;9359;50.932;6.924;2024-01-11T01:12:54;15.50;99.90
18460;DHT22;9359;50.932;6.924;2024-01-11T01:15:25;15.60;99.90
18460;DHT22;9359;50.932;6.924;2024-01-11T01:17:56;15.60;99.90
18460;DHT22;9359;50.932;6.924;2024-01-11T01:20:26;15.60;99.90
18460;DHT22;9359;50.932;6.924;2024-01-11T01:22:56;15.70;99.90
18460;DHT22;9359;50.932;6.924;2024-01-11T01:25:29;15.70;99.90
18460;DHT22;9359;50.932;6.924;2024-01-11T01:28:00;15.70;99.90
18460;DHT22;9359;50.932;6.924;2024-01-11T01:30:30;15.70;99.90
18460;DHT22;9359;50.932;6.924;2024-01-11T01:33:22;15.70;99.90
18460;DHT22;9359;50.932;6.924;2024-01-11T01:35:52;15.80;99.90
18460;DHT22;9359;50.932;6.924;2024-01-11T01:38:23;15.80;99.90
18460;DHT22;9359;50.932;6.924;2024-01-11T01:40:56;15.80;99.90
18460;DHT22;9359;50.932;6.924;2024-01-11T01:43:26;15.90;99.90
18460;DHT22;9359;50.932;6.924;2024-01-11T01:45:57;15.90;99.90
18460;DHT22;9359;50.932;6.924;2024-01-11T01:48:28;15.90;99.90
18460;DHT22;9359;50.932;6.924;2024-01-11T01:50:58;15.90;99.90
18460;DHT22;9359;50.932;6.924;2024-01-11T01:53:29;15.90;99.90
18460;DHT22;9359;50.932;6.924;2024-01-11T01:56:02;16.00;99.90
18460;DHT22;9359;50.932;6.924;2024-01-11T01:58:34;16.00;99.90
18460;DHT22;9359;50.932;6.924;2024-01-11T02:01:04;16.00;99.90
18460;DHT22;9359;50.932;6.924;2024-01-11T02:03:36;16.00;99.90
18460;DHT22;9359;50.932;6.924;2024-01-11T02:06:08;16.00;99.90
18460;DHT22;9359;50.932;6.924;2024-01-11T02:08:39;16.00;99.90
18460;DHT22;9359;50.932;6.924;2024-01-11T02:11:12;16.00;99.90
18460;DHT22;9359;50.932;6.924;2024-01-11T02:13:42;16.10;99.90
18460;DHT22;9359;50.932;6.924;2024-01-11T02:16:14;16.00;99.90
18460;DHT22;9359;50.932;6.924;2024-01-11T02:18:44;16.00;99.90
18460;DHT22;9359;50.932;6.924;2024-01-11T02:21:15;16.00;99.90
18460;DHT22;9359;50.932;6.924;2024-01-11T02:24:02;16.00;99.90
18460;DHT22;9359;50.932;6.924;2024-01-11T02:26:33;16.10;99.90
18460;DHT22;9359;50.932;6.924;2024-01-11T02:29:03;16.10;99.90
18460;DHT22;9359;50.932;6.924;2024-01-11T02:31:34;16.10;99.90
18460;DHT22;9359;50.932;6.924;2024-01-11T02:34:04;16.10;99.90
18460;DHT22;9359;50.932;6.924;2024-01-11T02:36:35;16.10;99.90
18460;DHT22;9359;50.932;6.924;2024-01-11T02:39:08;16.10;99.90
18460;DHT22;9359;50.932;6.924;2024-01-11T02:41:39;16.20;99.90
18460;DHT22;9359;50.932;6.924;2024-01-11T02:44:09;16.30;99.90
18460;DHT22;9359;50.932;6.924;2024-01-11T02:46:40;16.20;99.90
18460;DHT22;9359;50.932;6.924;2024-01-11T02:49:10;16.30;99.90
18460;DHT22;9359;50.932;6.924;2024-01-11T02:51:41;16.30;99.90
18460;DHT22;9359;50.932;6.924;2024-01-11T02:54:13;16.30;99.90
18460;DHT22;9359;50.932;6.924;2024-01-11T02:56:43;16.30;99.90
18460;DHT22;9359;50.932;6.924;2024-01-11T02:59:14;16.30;99.90
18460;DHT22;9359;50.932;6.924;2024-01-11T03:01:44;16.30;99.90
18460;DHT22;9359;50.932;6.924;2024-01-11T03:04:15;16.30;99.90
18460;DHT22;9359;50.932;6.924;2024-01-11T03:06:45;16.20;99.90
18460;DHT22;9359;50.932;6.924;2024-01-11T03:09:18;16.20;99.90
18460;DHT22;9359;50.932;6.924;2024-01-11T03:11:49;16.10;99.90
18460;DHT22;9359;50.932;6.924;2024-01-11T03:14:20;16.20;99.90
18460;DHT22;9359;50.932;6.924;2024-01-11T03:16:50;16.10;99.90
18460;DHT22;9359;50.932;6.924;2024-01-11T03:19:21;16.10;99.90
18460;DHT22;9359;50.932;6.924;2024-01-11T03:21:51;16.00;99.90
18460;DHT22;9359;50.932;6.924;2024-01-11T03:24:24;16.00;99.90
18460;DHT22;9359;50.932;6.924;2024-01-11T03:26:54;16.00;99.90
18460;DHT22;9359;50.932;6.924;2024-01-11T03:29:25;16.00;99.90
18460;DHT22;9359;50.932;6.924;2024-01-11T03:31:55;16.00;99.90
18460;DHT22;9359;50.932;6.924;2024-01-11T03:34:25;16.00;99.90
18460;DHT22;9359;50.932;6.924;2024-01-11T03:36:56;16.00;99.90
18460;DHT22;9359;50.932;6.924;2024-01-11T03:39:28;15.90;99.90
18460;DHT22;9359;50.932;6.924;2024-01-11T03:41:59;15.90;99.90
18460;DHT22;9359;50.932;6.924;2024-01-11T03:44:31;15.90;99.90
18460;DHT22;9359;50.932;6.924;2024-01-11T03:47:02;15.90;99.90
18460;DHT22;9359;50.932;6.924;2024-01-11T03:49:32;15.90;99.90
18460;DHT22;9359;50.932;6.924;2024-01-11T03:52:03;15.80;99.90
18460;DHT22;9359;50.932;6.924;2024-01-11T03:54:35;15.90;99.90
18460;DHT22;9359;50.932;6.924;2024-01-11T03:57:06;15.80;99.90
18460;DHT22;9359;50.932;6.924;2024-01-11T03:59:36;15.90;99.90
18460;DHT22;9359;50.932;6.924;2024-01-11T04:02:07;15.80;99.90
18460;DHT22;9359;50.932;6.924;2024-01-11T04:04:37;15.80;99.90
18460;DHT22;9359;50.932;6.924;2024-01-11T04:07:08;15.80;99.90
18460;DHT22;9359;50.932;6.924;2024-01-11T04:09:41;15.80;99.90
18460;DHT22;9359;50.932;6.924;2024-01-11T04:12:14;15.80;99.90
18460;DHT22;9359;50.932;6.924;2024-01-11T04:14:45;15.80;99.90
18460;DHT22;9359;50.932;6.924;2024-01-11T04:17:15;15.80;99.90
18460;DHT22;9359;50.932;6.924;2024-01-11T04:19:46;15.80;99.90
18460;DHT22;9359;50.932;6.924;2024-01-11T04:22:16;15.80;99.90
18460;DHT22;9359;50.932;6.924;2024-01-11T04:24:49;15.80;99.90
18460;DHT22;9359;50.932;6.924;2024-01-11T04:27:20;15.80;99.90
18460;DHT22;9359;50.932;6.924;2024-01-11T04:29:50;15.80;99.90
18460;DHT22;9359;50.932;6.924;2024-01-11T04:32:21;15.80;99.90
18460;DHT22;9359;50.932;6.924;2024-01-11T04:34:52;15.80;99.90
18460;DHT22;9359;50.932;6.924;2024-01-11T04:37:22;15.80;99.90
18460;DHT22;9359;50.932;6.924;2024-01-11T04:39:54;15.70;99.90
18460;DHT22;9359;50.932;6.924;2024-01-11T04:42:28;15.70;99.90
18460;DHT22;9359;50.932;6.924;2024-01-11T04:44:58;15.70;99.90
18460;DHT22;9359;50.932;6.924;2024-01-11T04:47:29;15.70;99.90
18460;DHT22;9359;50.932;6.924;2024-01-11T04:49:59;15.70;99.90
18460;DHT22;9359;50.932;6.924;2024-01-11T04:52:30;15.70;99.90
18460;DHT22;9359;50.932;6.924;2024-01-11T04:55:02;15.70;99.90
18460;DHT22;9359;50.932;6.924;2024-01-11T04:57:32;15.70;99.90
18460;DHT22;9359;50.932;6.924;2024-01-11T05:00:03;15.70;99.90
18460;DHT22;9359;50.932;6.924;2024-01-11T05:02:34;15.70;99.90
18460;DHT22;9359;50.932;6.924;2024-01-11T05:05:04;15.70;99.90
18460;DHT22;9359;50.932;6.924;2024-01-11T05:07:35;15.70;99.90
18460;DHT22;9359;50.932;6.924;2024-01-11T05:10:08;15.70;99.90
18460;DHT22;9359;50.932;6.924;2024-01-11T05:12:38;15.60;99.90
18460;DHT22;9359;50.932;6.924;2024-01-11T05:15:09;15.70;99.90
18460;DHT22;9359;50.932;6.924;2024-01-11T05:17:40;15.70;99.90
18460;DHT22;9359;50.932;6.924;2024-01-11T05:20:11;15.60;99.90
18460;DHT22;9359;50.932;6.924;2024-01-11T05:22:41;15.70;99.90
18460;DHT22;9359;50.932;6.924;2024-01-11T05:25:14;15.60;99.90
18460;DHT22;9359;50.932;6.924;2024-01-11T05:27:44;15.70;99.90
18460;DHT22;9359;50.932;6.924;2024-01-11T05:30:14;15.70;99.90
18460;DHT22;9359;50.932;6.924;2024-01-11T05:32:45;15.70;99.90
18460;DHT22;9359;50.932;6.924;2024-01-11T05:35:16;15.70;99.90
18460;DHT22;9359;50.932;6.924;2024-01-11T05:37:46;15.60;99.90
18460;DHT22;9359;50.932;6.924;2024-01-11T05:40:18;15.70;99.90
18460;DHT22;9359;50.932;6.924;2024-01-11T05:42:49;15.60;99.90
18460;DHT22;9359;50.932;6.924;2024-01-11T05:45:20;15.70;99.90
18460;DHT22;9359;50.932;6.924;2024-01-11T05:47:50;15.60;99.90
18460;DHT22;9359;50.932;6.924;2024-01-11T05:50:21;15.60;99.90
18460;DHT22;9359;50.932;6.924;2024-01-11T05:52:51;15.60;99.90
18460;DHT22;9359;50.932;6.924;2024-01-11T05:55:26;15.60;99.90
18460;DHT22;9359;50.932;6.924;2024-01-11T05:57:56;15.60;99.90
18460;DHT22;9359;50.932;6.924;2024-01-11T06:00:27;15.60;99.90
18460;DHT22;9359;50.932;6.924;2024-01-11T06:02:57;15.70;99.90
18460;DHT22;9359;50.932;6.924;2024-01-11T06:05:28;15.60;99.90
18460;DHT22;9359;50.932;6.924;2024-01-11T06:07:58;15.60;99.90
18460;DHT22;9359;50.932;6.924;2024-01-11T06:10:30;15.60;99.90
18460;DHT22;9359;50.932;6.924;2024-01-11T06:13:01;15.60;99.90
18460;DHT22;9359;50.932;6.924;2024-01-11T06:15:32;15.60;99.90
18460;DHT22;9359;50.932;6.924;2024-01-11T06:18:02;15.60;99.90
18460;DHT22;9359;50.932;6.924;2024-01-11T06:20:33;15.60;99.90
18460;DHT22;9359;50.932;6.924;2024-01-11T06:23:04;15.60;99.90
18460;DHT22;9359;50.932;6.924;2024-01-11T06:25:36;15.60;99.90
18460;DHT22;9359;50.932;6.924;2024-01-11T06:28:06;15.60;99.90
18460;DHT22;9359;50.932;6.924;2024-01-11T06:30:37;15.60;99.90
18460;DHT22;9359;50.932;6.924;2024-01-11T06:33:07;15.60;99.90
18460;DHT22;9359;50.932;6.924;2024-01-11T06:35:38;15.60;99.90
18460;DHT22;9359;50.932;6.924;2024-01-11T06:38:08;15.60;99.90
18460;DHT22;9359;50.932;6.924;2024-01-11T06:40:41;15.60;99.90
18460;DHT22;9359;50.932;6.924;2024-01-11T06:43:11;15.70;99.90
18460;DHT22;9359;50.932;6.924;2024-01-11T06:45:42;15.70;99.90
18460;DHT22;9359;50.932;6.924;2024-01-11T06:48:13;15.60;99.90
18460;DHT22;9359;50.932;6.924;2024-01-11T06:50:44;15.70;99.90
18460;DHT22;9359;50.932;6.924;2024-01-11T06:53:14;15.70;99.90
18460;DHT22;9359;50.932;6.924;2024-01-11T06:55:47;15.70;99.90
18460;DHT22;9359;50.932;6.924;2024-01-11T06:58:17;15.60;99.90
18460;DHT22;9359;50.932;6.924;2024-01-11T07:00:48;15.70;99.90
18460;DHT22;9359;50.932;6.924;2024-01-11T07:03:18;15.70;99.90
18460;DHT22;9359;50.932;6.924;2024-01-11T07:05:49;15.70;99.90
18460;DHT22;9359;50.932;6.924;2024-01-11T07:08:20;15.70;99.90
18460;DHT22;9359;50.932;6.924;2024-01-11T07:10:52;15.70;99.90
18460;DHT22;9359;50.932;6.924;2024-01-11T07:13:23;15.70;99.90
18460;DHT22;9359;50.932;6.924;2024-01-11T07:15:53;15.70;99.90
18460;DHT22;9359;50.932;6.924;2024-01-11T07:18:25;15.70;99.90
18460;DHT22;9359;50.932;6.924;2024-01-11T07:20:57;15.70;99.90
18460;DHT22;9359;50.932;6.924;2024-01-11T07:23:28;15.70;99.90
18460;DHT22;9359;50.932;6.924;2024-01-11T07:26:00;15.70;99.90
18460;DHT22;9359;50.932;6.924;2024-01-11T07:28:31;15.70;99.90
18460;DHT22;9359;50.932;6.924;2024-01-11T07:31:01;15.70;99.90
18460;DHT22;9359;50.932;6.924;2024-01-11T07:33:32;15.70;99.90
18460;DHT22;9359;50.932;6.924;2024-01-11T07:36:02;15.70;99.90
18460;DHT22;9359;50.932;6.924;2024-01-11T07:38:33;15.80;99.90
18460;DHT22;9359;50.932;6.924;2024-01-11T07:41:05;15.80;99.90
18460;DHT22;9359;50.932;6.924;2024-01-11T07:43:35;15.70;99.90
18460;DHT22;9359;50.932;6.924;2024-01-11T07:46:06;15.70;99.90
18460;DHT22;9359;50.932;6.924;2024-01-11T07:48:37;15.80;99.90
18460;DHT22;9359;50.932;6.924;2024-01-11T07:51:07;15.80;99.90
18460;DHT22;9359;50.932;6.924;2024-01-11T07:53:38;15.70;99.90
18460;DHT22;9359;50.932;6.924;2024-01-11T07:56:10;15.70;99.90
18460;DHT22;9359;50.932;6.924;2024-01-11T07:58:42;15.70;99.90
18460;DHT22;9359;50.932;6.924;2024-01-11T08:01:12;15.70;99.90
18460;DHT22;9359;50.932;6.924;2024-01-11T08:03:43;15.70;99.90
18460;DHT22;9359;50.932;6.924;2024-01-11T08:06:14;15.80;99.90
18460;DHT22;9359;50.932;6.924;2024-01-11T08:08:45;15.70;99.90
18460;DHT22;9359;50.932;6.924;2024-01-11T08:11:20;15.70;99.90
18460;DHT22;9359;50.932;6.924;2024-01-11T08:13:51;15.70;99.90
18460;DHT22;9359;50.932;6.924;2024-01-11T08:16:22;15.80;99.90
18460;DHT22;9359;50.932;6.924;2024-01-11T08:18:52;15.80;99.90
18460;DHT22;9359;50.932;6.924;2024-01-11T08:21:23;15.80;99.90
18460;DHT22;9359;50.932;6.924;2024-01-11T08:23:54;15.80;99.90
18460;DHT22;9359;50.932;6.924;2024-01-11T08:26:27;15.80;99.90
18460;DHT22;9359;50.932;6.924;2024-01-11T08:28:57;15.80;99.90
18460;DHT22;9359;50.932;6.924;2024-01-11T08:31:28;15.80;99.90
18460;DHT22;9359;50.932;6.924;2024-01-11T08:33:58;15.90;99.90
18460;DHT22;9359;50.932;6.924;2024-01-11T08:36:32;15.80;99.90
18460;DHT22;9359;50.932;6.924;2024-01-11T08:39:04;15.90;99.90
18460;DHT22;9359;50.932;6.924;2024-01-11T08:41:37;15.90;99.90
18460;DHT22;9359;50.932;6.924;2024-01-11T08:44:07;15.90;99.90
18460;DHT22;9359;50.932;6.924;2024-01-11T08:46:38;15.90;99.90
18460;DHT22;9359;50.932;6.924;2024-01-11T08:49:08;15.90;99.90
18460;DHT22;9359;50.932;6.924;2024-01-11T08:51:39;15.90;99.90
18460;DHT22;9359;50.932;6.924;2024-01-11T08:54:09;15.90;99.90
18460;DHT22;9359;50.932;6.924;2024-01-11T08:56:42;15.90;99.90
18460;DHT22;9359;50.932;6.924;2024-01-11T08:59:12;15.90;99.90
18460;DHT22;9359;50.932;6.924;2024-01-11T09:01:42;15.90;99.90
18460;DHT22;9359;50.932;6.924;2024-01-11T09:04:13;15.90;99.90
18460;DHT22;9359;50.932;6.924;2024-01-11T09:06:45;15.90;99.90
18460;DHT22;9359;50.932;6.924;2024-01-11T09:09:15;15.90;99.90
18460;DHT22;9359;50.932;6.924;2024-01-11T09:11:47;15.90;99.90
18460;DHT22;9359;50.932;6.924;2024-01-11T09:14:18;15.90;99.90
18460;DHT22;9359;50.932;6.924;2024-01-11T09:16:48;15.90;99.90
18460;DHT22;9359;50.932;6.924;2024-01-11T09:19:19;15.90;99.90
18460;DHT22;9359;50.932;6.924;2024-01-11T09:21:49;15.90;99.90
18460;DHT22;9359;50.932;6.924;2024-01-11T09:24:20;16.00;99.90
18460;DHT22;9359;50.932;6.924;2024-01-11T09:26:52;15.90;99.90
18460;DHT22;9359;50.932;6.924;2024-01-11T09:29:22;16.00;99.90
18460;DHT22;9359;50.932;6.924;2024-01-11T09:31:53;16.00;99.90
18460;DHT22;9359;50.932;6.924;2024-01-11T09:34:23;16.00;99.90
18460;DHT22;9359;50.932;6.924;2024-01-11T09:36:54;15.90;99.90
18460;DHT22;9359;50.932;6.924;2024-01-11T09:39:26;16.00;99.90
18460;DHT22;9359;50.932;6.924;2024-01-11T09:42:05;16.00;99.90
18460;DHT22;9359;50.932;6.924;2024-01-11T09:44:37;16.00;99.90
18460;DHT22;9359;50.932;6.924;2024-01-11T09:47:09;16.00;99.90
18460;DHT22;9359;50.932;6.924;2024-01-11T09:49:42;16.00;99.90
18460;DHT22;9359;50.932;6.924;2024-01-11T09:52:13;16.00;99.90
18460;DHT22;9359;50.932;6.924;2024-01-11T09:54:45;16.00;99.90
18460;DHT22;9359;50.932;6.924;2024-01-11T09:57:24;16.00;99.90
18460;DHT22;9359;50.932;6.924;2024-01-11T09:59:56;16.10;99.90
18460;DHT22;9359;50.932;6.924;2024-01-11T10:02:27;16.30;99.90
18460;DHT22;9359;50.932;6.924;2024-01-11T10:04:58;16.40;99.90
18460;DHT22;9359;50.932;6.924;2024-01-11T10:07:31;16.50;99.90
18460;DHT22;9359;50.932;6.924;2024-01-11T10:10:02;16.70;99.90
18460;DHT22;9359;50.932;6.924;2024-01-11T10:12:35;16.80;99.90
18460;DHT22;9359;50.932;6.924;2024-01-11T10:15:09;17.00;99.90
18460;DHT22;9359;50.932;6.924;2024-01-11T10:17:42;17.00;99.90
18460;DHT22;9359;50.932;6.924;2024-01-11T10:20:13;17.10;99.90
18460;DHT22;9359;50.932;6.924;2024-01-11T10:22:44;17.10;99.90
18460;DHT22;9359;50.932;6.924;2024-01-11T10:25:16;17.20;99.90
18460;DHT22;9359;50.932;6.924;2024-01-11T10:27:48;17.40;99.90
18460;DHT22;9359;50.932;6.924;2024-01-11T10:30:19;17.60;99.90
18460;DHT22;9359;50.932;6.924;2024-01-11T10:32:50;17.70;99.90
18460;DHT22;9359;50.932;6.924;2024-01-11T10:35:20;17.90;99.90
18460;DHT22;9359;50.932;6.924;2024-01-11T10:37:52;18.00;99.90
18460;DHT22;9359;50.932;6.924;2024-01-11T10:40:24;18.20;99.90
18460;DHT22;9359;50.932;6.924;2024-01-11T10:42:58;18.30;99.90
18460;DHT22;9359;50.932;6.924;2024-01-11T10:45:32;18.40;99.90
18460;DHT22;9359;50.932;6.924;2024-01-11T10:48:11;18.60;99.90
18460;DHT22;9359;50.932;6.924;2024-01-11T10:50:45;18.70;99.90
18460;DHT22;9359;50.932;6.924;2024-01-11T10:53:36;18.80;99.90
18460;DHT22;9359;50.932;6.924;2024-01-11T10:56:09;18.80;99.90
18460;DHT22;9359;50.932;6.924;2024-01-11T10:58:46;18.80;99.90
18460;DHT22;9359;50.932;6.924;2024-01-11T11:01:17;18.80;99.90
18460;DHT22;9359;50.932;6.924;2024-01-11T11:03:50;18.80;99.90
18460;DHT22;9359;50.932;6.924;2024-01-11T11:06:26;18.70;99.90
18460;DHT22;9359;50.932;6.924;2024-01-11T11:08:57;18.50;99.90
18460;DHT22;9359;50.932;6.924;2024-01-11T11:11:28;18.30;99.90
18460;DHT22;9359;50.932;6.924;2024-01-11T11:14:04;18.20;99.90
18460;DHT22;9359;50.932;6.924;2024-01-11T11:16:36;18.00;99.90
18460;DHT22;9359;50.932;6.924;2024-01-11T11:19:08;17.80;99.90
18460;DHT22;9359;50.932;6.924;2024-01-11T11:21:47;17.70;99.90
18460;DHT22;9359;50.932;6.924;2024-01-11T11:24:18;17.60;99.90
18460;DHT22;9359;50.932;6.924;2024-01-11T11:26:48;17.40;99.90
18460;DHT22;9359;50.932;6.924;2024-01-11T11:29:21;17.30;99.90
18460;DHT22;9359;50.932;6.924;2024-01-11T11:31:51;17.30;99.90
18460;DHT22;9359;50.932;6.924;2024-01-11T11:34:41;17.30;99.90
18460;DHT22;9359;50.932;6.924;2024-01-11T11:37:12;17.20;99.90
18460;DHT22;9359;50.932;6.924;2024-01-11T11:39:43;17.30;99.90
18460;DHT22;9359;50.932;6.924;2024-01-11T11:42:14;17.30;99.90
18460;DHT22;9359;50.932;6.924;2024-01-11T11:44:51;17.30;99.90
18460;DHT22;9359;50.932;6.924;2024-01-11T11:47:22;17.40;99.90
18460;DHT22;9359;50.932;6.924;2024-01-11T11:50:07;17.40;99.90
18460;DHT22;9359;50.932;6.924;2024-01-11T11:52:39;17.40;99.90
18460;DHT22;9359;50.932;6.924;2024-01-11T11:55:13;17.70;99.90
18460;DHT22;9359;50.932;6.924;2024-01-11T11:57:45;17.40;99.90
18460;DHT22;9359;50.932;6.924;2024-01-11T12:00:18;17.40;99.90
18460;DHT22;9359;50.932;6.924;2024-01-11T12:02:49;17.40;99.90
18460;DHT22;9359;50.932;6.924;2024-01-11T12:05:20;17.40;99.90
18460;DHT22;9359;50.932;6.924;2024-01-11T12:07:50;17.40;99.90
18460;DHT22;9359;50.932;6.924;2024-01-11T12:10:21;17.50;99.90
18460;DHT22;9359;50.932;6.924;2024-01-11T12:12:52;17.50;99.90
18460;DHT22;9359;50.932;6.924;2024-01-11T12:15:45;17.50;99.90
18460;DHT22;9359;50.932;6.924;2024-01-11T12:18:16;17.50;99.90
18460;DHT22;9359;50.932;6.924;2024-01-11T12:20:47;17.50;99.90
18460;DHT22;9359;50.932;6.924;2024-01-11T12:23:18;17.60;99.90
18460;DHT22;9359;50.932;6.924;2024-01-11T12:25:48;17.50;99.90
18460;DHT22;9359;50.932;6.924;2024-01-11T12:28:19;17.50;99.90
18460;DHT22;9359;50.932;6.924;2024-01-11T12:30:51;17.60;99.90
18460;DHT22;9359;50.932;6.924;2024-01-11T12:33:22;17.60;99.90
18460;DHT22;9359;50.932;6.924;2024-01-11T12:35:52;17.60;99.90
18460;DHT22;9359;50.932;6.924;2024-01-11T12:38:23;17.60;99.90
18460;DHT22;9359;50.932;6.924;2024-01-11T12:40:53;17.60;99.90
18460;DHT22;9359;50.932;6.924;2024-01-11T12:43:24;17.60;99.90
18460;DHT22;9359;50.932;6.924;2024-01-11T12:45:56;17.60;99.90
18460;DHT22;9359;50.932;6.924;2024-01-11T12:48:27;17.60;99.90
18460;DHT22;9359;50.932;6.924;2024-01-11T12:50:57;17.60;99.90
18460;DHT22;9359;50.932;6.924;2024-01-11T12:53:28;17.50;99.90
18460;DHT22;9359;50.932;6.924;2024-01-11T12:56:07;17.40;99.90
18460;DHT22;9359;50.932;6.924;2024-01-11T12:58:38;17.40;99.90
18460;DHT22;9359;50.932;6.924;2024-01-11T13:01:11;17.30;99.90
18460;DHT22;9359;50.932;6.924;2024-01-11T13:03:45;17.30;99.90
18460;DHT22;9359;50.932;6.924;2024-01-11T13:06:16;17.10;99.90
18460;DHT22;9359;50.932;6.924;2024-01-11T13:08:48;17.10;99.90
18460;DHT22;9359;50.932;6.924;2024-01-11T13:11:20;17.00;99.90
18460;DHT22;9359;50.932;6.924;2024-01-11T13:13:52;17.00;99.90
18460;DHT22;9359;50.932;6.924;2024-01-11T13:16:25;16.90;99.90
18460;DHT22;9359;50.932;6.924;2024-01-11T13:18:56;16.90;99.90
18460;DHT22;9359;50.932;6.924;2024-01-11T13:21:26;16.80;99.90
18460;DHT22;9359;50.932;6.924;2024-01-11T13:23:57;16.80;99.90
18460;DHT22;9359;50.932;6.924;2024-01-11T13:26:27;16.70;99.90
18460;DHT22;9359;50.932;6.924;2024-01-11T13:28:58;16.70;99.90
18460;DHT22;9359;50.932;6.924;2024-01-11T13:31:30;16.70;99.90
18460;DHT22;9359;50.932;6.924;2024-01-11T13:34:01;16.60;99.90
18460;DHT22;9359;50.932;6.924;2024-01-11T13:36:31;16.60;99.90
18460;DHT22;9359;50.932;6.924;2024-01-11T13:39:02;16.50;99.90
18460;DHT22;9359;50.932;6.924;2024-01-11T13:41:35;16.50;99.90
18460;DHT22;9359;50.932;6.924;2024-01-11T13:44:05;16.50;99.90
18460;DHT22;9359;50.932;6.924;2024-01-11T13:46:39;16.50;99.90
18460;DHT22;9359;50.932;6.924;2024-01-11T13:49:09;16.40;99.90
18460;DHT22;9359;50.932;6.924;2024-01-11T13:51:39;16.40;99.90
18460;DHT22;9359;50.932;6.924;2024-01-11T13:54:12;16.40;99.90
18460;DHT22;9359;50.932;6.924;2024-01-11T13:56:43;16.30;99.90
18460;DHT22;9359;50.932;6.924;2024-01-11T13:59:14;16.30;99.90
18460;DHT22;9359;50.932;6.924;2024-01-11T14:01:47;16.30;99.90
18460;DHT22;9359;50.932;6.924;2024-01-11T14:04:17;16.30;99.90
18460;DHT22;9359;50.932;6.924;2024-01-11T14:06:50;16.30;99.90
18460;DHT22;9359;50.932;6.924;2024-01-11T14:09:21;16.20;99.90
18460;DHT22;9359;50.932;6.924;2024-01-11T14:11:52;16.20;99.90
18460;DHT22;9359;50.932;6.924;2024-01-11T14:14:22;16.20;99.90
18460;DHT22;9359;50.932;6.924;2024-01-11T14:16:54;16.20;99.90
18460;DHT22;9359;50.932;6.924;2024-01-11T14:19:25;16.20;99.90
18460;DHT22;9359;50.932;6.924;2024-01-11T14:21:56;16.10;99.90
18460;DHT22;9359;50.932;6.924;2024-01-11T14:24:26;16.10;99.90
18460;DHT22;9359;50.932;6.924;2024-01-11T14:26:57;16.10;99.90
18460;DHT22;9359;50.932;6.924;2024-01-11T14:29:27;16.10;99.90
18460;DHT22;9359;50.932;6.924;2024-01-11T14:32:00;16.10;99.90
18460;DHT22;9359;50.932;6.924;2024-01-11T14:34:30;16.10;99.90
18460;DHT22;9359;50.932;6.924;2024-01-11T14:37:01;16.00;99.90
18460;DHT22;9359;50.932;6.924;2024-01-11T14:39:31;15.30;99.90
18460;DHT22;9359;50.932;6.924;2024-01-11T14:42:02;16.10;99.90
18460;DHT22;9359;50.932;6.924;2024-01-11T14:44:33;16.10;99.90
18460;DHT22;9359;50.932;6.924;2024-01-11T14:47:05;16.00;99.90
18460;DHT22;9359;50.932;6.924;2024-01-11T14:49:36;16.00;99.90
18460;DHT22;9359;50.932;6.924;2024-01-11T14:52:08;16.00;99.90
18460;DHT22;9359;50.932;6.924;2024-01-11T14:54:38;16.00;99.90
18460;DHT22;9359;50.932;6.924;2024-01-11T14:57:09;16.00;99.90
18460;DHT22;9359;50.932;6.924;2024-01-11T14:59:40;16.00;99.90
18460;DHT22;9359;50.932;6.924;2024-01-11T15:02:13;16.00;99.90
18460;DHT22;9359;50.932;6.924;2024-01-11T15:04:43;16.00;99.90
18460;DHT22;9359;50.932;6.924;2024-01-11T15:07:14;16.00;99.90
18460;DHT22;9359;50.932;6.924;2024-01-11T15:09:44;16.00;99.90
18460;DHT22;9359;50.932;6.924;2024-01-11T15:12:15;16.00;99.90
18460;DHT22;9359;50.932;6.924;2024-01-11T15:14:48;16.00;99.90
18460;DHT22;9359;50.932;6.924;2024-01-11T15:17:21;16.00;99.90
18460;DHT22;9359;50.932;6.924;2024-01-11T15:19:52;16.10;99.90
18460;DHT22;9359;50.932;6.924;2024-01-11T15:22:23;16.00;99.90
18460;DHT22;9359;50.932;6.924;2024-01-11T15:24:55;16.00;99.90
18460;DHT22;9359;50.932;6.924;2024-01-11T15:27:26;15.90;99.90
18460;DHT22;9359;50.932;6.924;2024-01-11T15:29:58;15.90;99.90
18460;DHT22;9359;50.932;6.924;2024-01-11T15:32:33;16.00;99.90
18460;DHT22;9359;50.932;6.924;2024-01-11T15:35:09;15.90;99.90
18460;DHT22;9359;50.932;6.924;2024-01-11T15:37:41;15.90;99.90
18460;DHT22;9359;50.932;6.924;2024-01-11T15:40:14;15.90;99.90
18460;DHT22;9359;50.932;6.924;2024-01-11T15:42:46;15.90;99.90
18460;DHT22;9359;50.932;6.924;2024-01-11T15:45:20;15.90;99.90
18460;DHT22;9359;50.932;6.924;2024-01-11T15:47:54;15.90;99.90
18460;DHT22;9359;50.932;6.924;2024-01-11T15:50:27;16.20;99.90
18460;DHT22;9359;50.932;6.924;2024-01-11T15:52:59;15.90;99.90
18460;DHT22;9359;50.932;6.924;2024-01-11T15:55:31;15.90;99.90
18460;DHT22;9359;50.932;6.924;2024-01-11T15:58:02;15.90;99.90
18460;DHT22;9359;50.932;6.924;2024-01-11T16:00:33;15.90;99.90
18460;DHT22;9359;50.932;6.924;2024-01-11T16:03:06;15.90;99.90
18460;DHT22;9359;50.932;6.924;2024-01-11T16:05:39;15.90;99.90
18460;DHT22;9359;50.932;6.924;2024-01-11T16:08:14;15.90;99.90
18460;DHT22;9359;50.932;6.924;2024-01-11T16:10:45;15.90;99.90
18460;DHT22;9359;50.932;6.924;2024-01-11T16:13:16;15.90;99.90